Time;durP1;ratioP1;P1;durP2;ratioP2;P2;SDS_P1;SDS_P2;PMS_P1;PMS_P2;Temp;Humidity;BMP_temperature;BMP_pressure;BME280_temperature;BME280_humidity;BME280_pressure;Samples;Min_cycle;Max_cycle;Signal;HPM_P1;HPM_P2
2023/07/05 00:01:50;;;;;;;11.70;5.57;;;;;;;;;;4981674;28;20046;-88
2023/07/05 00:05:03;;;;;;;7.80;5.13;;;;;;;;;;4974426;28;20054;-89
2023/07/05 00:08:39;;;;;;;;;;;;;;;;;;;;;
2023/07/05 00:11:35;;;;;;;10.45;5.80;;;;;;;;;;4952734;28;20129;-88
2023/07/05 00:17:32;;;;;;;8.52;5.57;;;;;;;;;;4904413;29;20101;-87
2023/07/05 00:20:11;;;;;;;9.93;5.18;;;;;;;;;;4882319;29;20525;-88
2023/07/05 00:23:15;;;;;;;6.25;5.18;;;;;;;;;;4836968;29;20057;-88
2023/07/05 00:25:52;;;;;;;10.43;4.80;;;;;;;;;;4851464;29;20468;-88
2023/07/05 00:28:36;;;;;;;9.10;5.10;;;;;;;;;;4880708;29;24555;-88
2023/07/05 00:31:35;;;;;;;9.82;5.13;;;;;;;;;;4917402;28;20054;-88
2023/07/05 00:34:02;;;;;;;9.82;5.78;;;;;;;;;;4922711;28;20074;-87
2023/07/05 00:36:32;;;;;;;7.25;5.40;;;;;;;;;;4925556;28;20109;-87
2023/07/05 00:39:15;;;;;;;9.43;5.75;;;;;;;;;;4934059;28;20060;-87
2023/07/05 00:41:56;;;;;;;6.97;5.18;;;;;;;;;;4946325;28;20141;-88
2023/07/05 00:44:27;;;;;;;7.13;5.47;;;;;;;;;;4956707;28;20168;-87
2023/07/05 00:47:09;;;;;;;10.20;5.60;;;;;;;;;;4938708;28;20181;-88
2023/07/05 00:49:45;;;;;;;8.75;5.60;;;;;;;;;;4956728;28;20141;-87
2023/07/05 00:52:15;;;;;;;8.38;5.50;;;;;;;;;;4952439;28;22218;-87
2023/07/05 00:54:51;;;;;;;10.02;6.03;;;;;;;;;;4942234;28;20047;-87
2023/07/05 00:57:21;;;;;;;10.25;5.63;;;;;;;;;;4942055;28;20149;-86
2023/07/05 01:00:12;;;;;;;8.40;5.53;;;;;;;;;;4940501;28;20071;-87
2023/07/05 01:02:44;;;;;;;10.38;5.95;;;;;;;;;;4969006;28;20390;-87
2023/07/05 01:05:16;;;;;;;8.02;5.78;;;;;;;;;;4939309;28;25346;-86
2023/07/05 01:07:42;;;;;;;10.88;6.32;;;;;;;;;;4960387;28;20121;-87
2023/07/05 01:10:26;;;;;;;8.90;6.30;;;;;;;;;;4941509;28;20489;-87
2023/07/05 01:13:16;;;;;;;10.60;5.85;;;;;;;;;;4939161;28;20048;-87
2023/07/05 01:16:28;;;;;;;;;;;;;;;;;;;;;
2023/07/05 01:19:39;;;;;;;10.93;6.47;;;;;;;;;;4894159;29;20079;-89
2023/07/05 01:22:31;;;;;;;;;;;;;;;;;;;;;
2023/07/05 01:29:11;;;;;;;;;;;;;;;;;;;;;
2023/07/05 01:33:05;;;;;;;;;;;;;;;;;;;;;
2023/07/05 01:41:45;;;;;;;10.50;7.05;;;;;;;;;;5600675;23;20143;-85
2023/07/05 01:44:12;;;;;;;13.80;8.35;;;;;;;;;;4957131;28;20089;-86
2023/07/05 01:46:41;;;;;;;14.15;7.50;;;;;;;;;;4936078;28;20515;-86
2023/07/05 01:49:22;;;;;;;14.52;9.38;;;;;;;;;;4958205;28;20057;-84
2023/07/05 01:51:48;;;;;;;15.05;8.27;;;;;;;;;;4959778;28;20638;-83
2023/07/05 01:54:17;;;;;;;15.50;9.27;;;;;;;;;;4954218;28;20037;-84
2023/07/05 01:56:57;;;;;;;13.90;9.02;;;;;;;;;;4937132;28;20041;-84
2023/07/05 01:59:24;;;;;;;17.23;9.77;;;;;;;;;;4946001;28;20073;-83
2023/07/05 02:01:52;;;;;;;12.63;8.57;;;;;;;;;;4934755;28;20049;-84
2023/07/05 02:04:20;;;;;;;14.93;8.77;;;;;;;;;;4952776;28;20099;-84
2023/07/05 02:06:46;;;;;;;17.08;8.77;;;;;;;;;;4957156;28;20685;-83
2023/07/05 02:09:12;;;;;;;16.25;8.82;;;;;;;;;;4932510;28;20053;-83
2023/07/05 02:11:38;;;;;;;16.77;9.63;;;;;;;;;;4951036;28;20041;-82
2023/07/05 02:14:04;;;;;;;13.73;9.18;;;;;;;;;;4945135;28;20567;-83
2023/07/05 02:16:30;;;;;;;13.13;9.57;;;;;;;;;;4954364;28;20045;-83
2023/07/05 02:18:56;;;;;;;16.55;9.75;;;;;;;;;;4947987;28;20834;-83
2023/07/05 02:21:22;;;;;;;11.65;8.73;;;;;;;;;;4965809;28;20454;-82
2023/07/05 02:23:48;;;;;;;13.45;9.43;;;;;;;;;;4948679;28;20096;-83
2023/07/05 02:26:14;;;;;;;14.45;9.23;;;;;;;;;;4965247;28;20042;-84
2023/07/05 02:28:40;;;;;;;14.00;9.00;;;;;;;;;;4939580;28;20046;-84
2023/07/05 02:31:11;;;;;;;12.63;8.98;;;;;;;;;;4927435;28;20378;-85
2023/07/05 02:33:37;;;;;;;16.45;9.80;;;;;;;;;;4918373;28;20053;-85
2023/07/05 02:36:07;;;;;;;14.57;9.98;;;;;;;;;;4945783;28;20045;-84
2023/07/05 02:38:33;;;;;;;15.30;10.02;;;;;;;;;;4936219;28;20045;-83
2023/07/05 02:40:59;;;;;;;17.05;10.23;;;;;;;;;;4960052;28;20146;-83
2023/07/05 02:43:25;;;;;;;11.98;8.23;;;;;;;;;;4954795;28;20049;-83
2023/07/05 02:45:51;;;;;;;11.80;8.45;;;;;;;;;;4948811;28;20448;-84
2023/07/05 02:48:17;;;;;;;13.50;10.30;;;;;;;;;;4951496;28;20089;-83
2023/07/05 02:50:43;;;;;;;12.90;11.15;;;;;;;;;;4921109;28;20062;-83
2023/07/05 02:53:09;;;;;;;17.60;10.35;;;;;;;;;;4916161;28;20442;-83
2023/07/05 02:55:35;;;;;;;14.38;11.27;;;;;;;;;;4952395;28;20362;-83
2023/07/05 02:58:01;;;;;;;14.68;10.90;;;;;;;;;;4927053;28;20046;-84
2023/07/05 03:00:29;;;;;;;13.98;9.82;;;;;;;;;;4932470;28;20050;-85
2023/07/05 03:02:56;;;;;;;13.82;10.43;;;;;;;;;;4933261;28;20452;-84
2023/07/05 03:05:22;;;;;;;21.55;12.07;;;;;;;;;;4952617;28;20041;-85
2023/07/05 03:07:48;;;;;;;14.63;10.88;;;;;;;;;;4925260;28;20951;-84
2023/07/05 03:10:14;;;;;;;15.15;11.35;;;;;;;;;;4948707;28;20046;-87
2023/07/05 03:12:40;;;;;;;15.07;10.40;;;;;;;;;;4938833;28;20038;-84
2023/07/05 03:15:07;;;;;;;12.73;10.00;;;;;;;;;;4965680;28;20363;-84
2023/07/05 03:17:33;;;;;;;13.02;10.57;;;;;;;;;;4974955;28;20449;-83
2023/07/05 03:19:59;;;;;;;11.48;10.23;;;;;;;;;;4920375;28;20393;-84
2023/07/05 03:22:29;;;;;;;17.80;11.15;;;;;;;;;;4959647;28;20442;-83
2023/07/05 03:24:55;;;;;;;14.27;9.90;;;;;;;;;;4937807;28;20050;-83
2023/07/05 03:27:21;;;;;;;13.30;11.02;;;;;;;;;;4960037;28;20041;-83
2023/07/05 03:29:49;;;;;;;19.13;11.27;;;;;;;;;;4942720;28;20078;-83
2023/07/05 03:32:16;;;;;;;13.88;11.25;;;;;;;;;;4943337;28;20037;-82
2023/07/05 03:34:42;;;;;;;15.48;10.90;;;;;;;;;;4942337;28;20042;-83
2023/07/05 03:37:08;;;;;;;13.88;10.48;;;;;;;;;;4963340;28;20482;-83
2023/07/05 03:39:34;;;;;;;11.43;10.23;;;;;;;;;;4975051;28;20038;-82
2023/07/05 03:42:01;;;;;;;15.02;10.95;;;;;;;;;;4965839;28;20081;-83
2023/07/05 03:44:28;;;;;;;12.38;10.27;;;;;;;;;;4956813;28;20069;-82
2023/07/05 03:46:54;;;;;;;17.00;11.18;;;;;;;;;;4960920;28;20046;-83
2023/07/05 03:49:20;;;;;;;12.30;9.30;;;;;;;;;;4966954;28;20054;-83
2023/07/05 03:51:46;;;;;;;13.35;9.82;;;;;;;;;;4973179;28;20093;-82
2023/07/05 03:54:12;;;;;;;16.35;10.63;;;;;;;;;;4946227;28;20046;-83
2023/07/05 03:56:38;;;;;;;15.27;10.73;;;;;;;;;;4937751;28;20042;-84
2023/07/05 03:59:04;;;;;;;15.23;10.07;;;;;;;;;;4953304;28;20054;-83
2023/07/05 04:01:30;;;;;;;12.35;10.15;;;;;;;;;;4942361;28;20038;-83
2023/07/05 04:03:57;;;;;;;14.32;10.07;;;;;;;;;;4939270;28;20046;-83
2023/07/05 04:06:23;;;;;;;12.32;9.60;;;;;;;;;;4928303;28;20054;-83
2023/07/05 04:08:50;;;;;;;13.13;10.75;;;;;;;;;;4949868;28;20054;-83
2023/07/05 04:11:16;;;;;;;13.73;9.93;;;;;;;;;;4936531;28;20619;-83
2023/07/05 04:13:43;;;;;;;11.73;9.90;;;;;;;;;;4939196;28;20046;-83
2023/07/05 04:16:17;;;;;;;12.65;9.93;;;;;;;;;;4935790;28;23024;-82
2023/07/05 04:18:43;;;;;;;10.90;8.98;;;;;;;;;;4936046;28;20045;-83
2023/07/05 04:21:10;;;;;;;10.23;9.05;;;;;;;;;;4945023;28;21668;-83
2023/07/05 04:23:36;;;;;;;10.20;9.02;;;;;;;;;;4949930;28;20196;-82
2023/07/05 04:26:02;;;;;;;13.77;9.02;;;;;;;;;;4966171;28;20130;-83
2023/07/05 04:28:28;;;;;;;10.68;9.02;;;;;;;;;;4938619;28;20045;-83
2023/07/05 04:30:55;;;;;;;10.93;8.18;;;;;;;;;;4947087;28;20730;-82
2023/07/05 04:33:21;;;;;;;11.15;8.52;;;;;;;;;;4946496;28;20421;-83
2023/07/05 04:35:47;;;;;;;10.40;8.13;;;;;;;;;;4955986;28;20389;-82
2023/07/05 04:38:13;;;;;;;12.63;8.60;;;;;;;;;;4958281;28;20034;-82
2023/07/05 04:40:39;;;;;;;14.80;7.97;;;;;;;;;;4965802;28;20042;-83
2023/07/05 04:43:05;;;;;;;8.07;7.38;;;;;;;;;;4943435;28;20094;-83
2023/07/05 04:45:31;;;;;;;8.85;6.90;;;;;;;;;;4930826;28;20046;-83
2023/07/05 04:47:57;;;;;;;7.22;6.40;;;;;;;;;;4946972;28;20038;-83
2023/07/05 04:50:23;;;;;;;7.45;6.10;;;;;;;;;;4946894;28;20049;-82
2023/07/05 04:52:49;;;;;;;7.88;5.65;;;;;;;;;;4935753;28;20046;-82
2023/07/05 04:55:16;;;;;;;6.28;4.75;;;;;;;;;;4935093;28;20054;-83
2023/07/05 04:57:42;;;;;;;6.25;4.80;;;;;;;;;;4951095;28;20044;-82
2023/07/05 05:00:09;;;;;;;6.63;4.60;;;;;;;;;;4926629;28;20565;-82
2023/07/05 05:02:35;;;;;;;6.43;4.13;;;;;;;;;;4921261;28;20069;-82
2023/07/05 05:05:01;;;;;;;4.95;4.18;;;;;;;;;;4941160;28;20054;-83
2023/07/05 05:07:27;;;;;;;6.45;4.32;;;;;;;;;;4946339;28;20525;-82
2023/07/05 05:09:53;;;;;;;5.15;4.00;;;;;;;;;;4930304;28;20133;-82
2023/07/05 05:12:19;;;;;;;6.72;4.50;;;;;;;;;;4933037;28;20393;-82
2023/07/05 05:14:45;;;;;;;5.30;4.03;;;;;;;;;;4929757;28;20034;-81
2023/07/05 05:17:12;;;;;;;5.65;4.45;;;;;;;;;;4931709;28;20380;-82
2023/07/05 05:19:38;;;;;;;4.85;4.45;;;;;;;;;;4950940;28;20046;-82
2023/07/05 05:22:04;;;;;;;5.00;4.53;;;;;;;;;;4945748;28;20137;-82
2023/07/05 05:24:30;;;;;;;6.07;4.40;;;;;;;;;;4968771;28;20154;-81
2023/07/05 05:26:56;;;;;;;5.15;4.55;;;;;;;;;;4946856;28;20054;-82
2023/07/05 05:29:22;;;;;;;7.47;4.65;;;;;;;;;;4934258;28;20046;-82
2023/07/05 05:31:48;;;;;;;5.63;5.03;;;;;;;;;;4956264;28;20144;-82
2023/07/05 05:34:14;;;;;;;6.20;4.70;;;;;;;;;;4953681;28;20047;-82
2023/07/05 05:36:40;;;;;;;5.95;4.40;;;;;;;;;;4940992;28;20049;-82
2023/07/05 05:39:07;;;;;;;4.88;4.40;;;;;;;;;;4952210;28;20038;-82
2023/07/05 05:41:33;;;;;;;4.95;4.45;;;;;;;;;;4943976;28;20061;-81
2023/07/05 05:43:59;;;;;;;6.57;4.55;;;;;;;;;;4933796;28;20058;-82
2023/07/05 05:46:25;;;;;;;5.10;4.60;;;;;;;;;;4937956;28;20080;-82
2023/07/05 05:48:51;;;;;;;4.95;4.47;;;;;;;;;;4946422;28;20105;-82
2023/07/05 05:51:17;;;;;;;4.78;4.10;;;;;;;;;;4941853;28;20117;-82
2023/07/05 05:53:43;;;;;;;7.10;4.13;;;;;;;;;;4937870;28;20042;-82
2023/07/05 05:56:10;;;;;;;5.47;4.43;;;;;;;;;;4926151;28;20042;-82
2023/07/05 05:58:36;;;;;;;5.82;4.40;;;;;;;;;;4957597;28;20050;-82
2023/07/05 06:01:02;;;;;;;4.45;4.03;;;;;;;;;;4917620;28;20129;-82
2023/07/05 06:03:29;;;;;;;5.20;3.90;;;;;;;;;;4953415;28;20062;-82
2023/07/05 06:05:55;;;;;;;6.40;4.35;;;;;;;;;;4965860;28;20034;-83
2023/07/05 06:08:21;;;;;;;6.13;4.40;;;;;;;;;;4953483;28;20042;-82
2023/07/05 06:10:54;;;;;;;6.03;4.25;;;;;;;;;;4955801;28;20501;-83
2023/07/05 06:13:20;;;;;;;4.40;3.88;;;;;;;;;;4935471;28;20034;-83
2023/07/05 06:15:46;;;;;;;6.65;4.07;;;;;;;;;;4920379;28;20038;-83
2023/07/05 06:18:12;;;;;;;6.93;4.32;;;;;;;;;;4962217;28;20042;-82
2023/07/05 06:20:38;;;;;;;5.50;3.63;;;;;;;;;;4963053;28;20584;-82
2023/07/05 06:23:04;;;;;;;5.95;3.83;;;;;;;;;;4944113;28;20132;-82
2023/07/05 06:25:30;;;;;;;4.72;3.88;;;;;;;;;;4970568;28;20066;-82
2023/07/05 06:27:56;;;;;;;6.13;3.70;;;;;;;;;;4953814;28;20492;-82
2023/07/05 06:30:22;;;;;;;4.80;3.67;;;;;;;;;;4953925;28;20493;-82
2023/07/05 06:32:48;;;;;;;5.85;3.50;;;;;;;;;;4953397;28;20035;-82
2023/07/05 06:35:14;;;;;;;4.80;3.85;;;;;;;;;;4945726;28;20043;-83
2023/07/05 06:37:40;;;;;;;5.65;3.67;;;;;;;;;;4957634;28;20038;-82
2023/07/05 06:40:07;;;;;;;5.03;3.38;;;;;;;;;;4948657;28;20044;-83
2023/07/05 06:42:33;;;;;;;4.93;3.92;;;;;;;;;;4953526;28;20058;-82
2023/07/05 06:44:59;;;;;;;6.00;3.75;;;;;;;;;;4933442;28;20049;-82
2023/07/05 06:47:26;;;;;;;6.35;3.85;;;;;;;;;;4937675;28;20115;-83
2023/07/05 06:49:52;;;;;;;4.30;3.90;;;;;;;;;;4954986;28;20178;-83
2023/07/05 06:52:18;;;;;;;4.82;3.65;;;;;;;;;;4974873;28;20039;-82
2023/07/05 06:54:44;;;;;;;4.88;4.28;;;;;;;;;;4963935;28;20180;-83
2023/07/05 06:57:10;;;;;;;4.68;3.60;;;;;;;;;;4967394;28;21375;-83
2023/07/05 06:59:36;;;;;;;4.45;3.63;;;;;;;;;;4956560;28;20374;-82
2023/07/05 07:02:02;;;;;;;5.18;3.70;;;;;;;;;;4971457;28;20449;-82
2023/07/05 07:04:29;;;;;;;4.85;3.63;;;;;;;;;;4938143;28;20046;-82
2023/07/05 07:06:55;;;;;;;5.28;3.30;;;;;;;;;;4920469;28;20053;-83
2023/07/05 07:09:21;;;;;;;5.78;3.75;;;;;;;;;;4937008;28;21075;-82
2023/07/05 07:11:47;;;;;;;6.10;3.72;;;;;;;;;;4953941;28;20177;-83
2023/07/05 07:14:13;;;;;;;8.43;3.28;;;;;;;;;;4947539;28;20169;-83
2023/07/05 07:16:39;;;;;;;4.43;3.63;;;;;;;;;;4954838;28;20164;-82
2023/07/05 07:19:05;;;;;;;5.72;3.40;;;;;;;;;;4934010;28;20042;-82
2023/07/05 07:21:31;;;;;;;4.60;3.58;;;;;;;;;;4955409;28;20046;-82
2023/07/05 07:23:57;;;;;;;6.22;3.63;;;;;;;;;;4918134;28;20053;-82
2023/07/05 07:26:24;;;;;;;5.38;3.38;;;;;;;;;;4971278;28;20045;-82
2023/07/05 07:28:51;;;;;;;5.32;3.53;;;;;;;;;;4937372;28;20408;-82
2023/07/05 07:31:19;;;;;;;5.43;3.40;;;;;;;;;;4940136;28;20030;-82
2023/07/05 07:33:46;;;;;;;3.83;3.30;;;;;;;;;;4957362;28;20038;-82
2023/07/05 07:36:12;;;;;;;6.63;3.67;;;;;;;;;;4957092;28;20065;-81
2023/07/05 07:38:39;;;;;;;3.95;3.50;;;;;;;;;;4958316;28;20417;-82
2023/07/05 07:41:05;;;;;;;6.85;3.75;;;;;;;;;;4927741;28;20046;-82
2023/07/05 07:43:31;;;;;;;6.70;3.20;;;;;;;;;;4926196;28;20509;-82
2023/07/05 07:45:57;;;;;;;6.63;4.00;;;;;;;;;;4931881;28;20455;-82
2023/07/05 07:48:23;;;;;;;5.45;3.70;;;;;;;;;;4935767;28;20370;-82
2023/07/05 07:50:50;;;;;;;5.25;4.30;;;;;;;;;;4941987;28;20050;-82
2023/07/05 07:53:16;;;;;;;4.90;3.55;;;;;;;;;;4935449;28;20529;-81
2023/07/05 07:55:42;;;;;;;11.88;3.95;;;;;;;;;;4923076;28;20046;-82
2023/07/05 07:58:08;;;;;;;4.75;2.67;;;;;;;;;;4933204;28;20038;-83
2023/07/05 08:00:35;;;;;;;4.80;3.17;;;;;;;;;;4935681;28;20057;-83
2023/07/05 08:03:01;;;;;;;3.63;2.47;;;;;;;;;;4934778;28;20127;-83
2023/07/05 08:05:28;;;;;;;3.38;2.08;;;;;;;;;;4957373;28;20069;-83
2023/07/05 08:07:54;;;;;;;5.15;2.08;;;;;;;;;;4944895;28;20069;-84
2023/07/05 08:10:20;;;;;;;1.98;1.80;;;;;;;;;;4958556;28;20043;-83
2023/07/05 08:12:46;;;;;;;2.67;1.48;;;;;;;;;;4938056;28;20047;-83
2023/07/05 08:15:15;;;;;;;1.65;1.20;;;;;;;;;;4939836;28;20104;-83
2023/07/05 08:17:44;;;;;;;1.45;1.20;;;;;;;;;;4921304;28;23536;-83
2023/07/05 08:20:10;;;;;;;2.05;1.20;;;;;;;;;;4931527;28;20708;-83
2023/07/05 08:22:36;;;;;;;2.20;1.00;;;;;;;;;;4934453;28;20038;-82
2023/07/05 08:25:02;;;;;;;3.83;0.80;;;;;;;;;;4967035;28;20038;-83
2023/07/05 08:27:28;;;;;;;1.95;0.85;;;;;;;;;;4919735;28;20050;-84
2023/07/05 08:29:54;;;;;;;2.15;0.90;;;;;;;;;;4941673;28;20045;-83
2023/07/05 08:32:21;;;;;;;2.40;0.98;;;;;;;;;;4940476;28;20425;-83
2023/07/05 08:34:48;;;;;;;1.90;0.93;;;;;;;;;;4951425;28;20046;-82
2023/07/05 08:37:14;;;;;;;1.55;0.70;;;;;;;;;;4932337;28;20076;-83
2023/07/05 08:39:40;;;;;;;1.20;1.00;;;;;;;;;;4952252;28;20042;-82
2023/07/05 08:42:06;;;;;;;1.27;0.90;;;;;;;;;;4934768;28;20066;-82
2023/07/05 08:44:36;;;;;;;1.42;1.13;;;;;;;;;;4954687;28;20046;-82
2023/07/05 08:47:08;;;;;;;2.35;1.00;;;;;;;;;;4947780;28;20046;-82
2023/07/05 08:49:52;;;;;;;4.55;0.90;;;;;;;;;;4970462;28;20049;-82
2023/07/05 08:52:25;;;;;;;1.35;0.90;;;;;;;;;;4949861;28;20038;-84
2023/07/05 08:54:53;;;;;;;2.80;1.10;;;;;;;;;;4919232;28;20038;-86
2023/07/05 08:57:52;;;;;;;1.52;1.02;;;;;;;;;;4940852;28;21647;-85
2023/07/05 09:00:19;;;;;;;2.13;1.13;;;;;;;;;;4912683;28;20053;-84
2023/07/05 09:02:45;;;;;;;2.83;1.10;;;;;;;;;;4963296;28;20053;-85
2023/07/05 09:05:30;;;;;;;2.70;1.13;;;;;;;;;;4942919;28;20576;-85
2023/07/05 09:07:56;;;;;;;2.45;1.38;;;;;;;;;;4942481;28;20504;-86
2023/07/05 09:10:29;;;;;;;2.60;1.27;;;;;;;;;;4987251;28;20092;-86
2023/07/05 09:13:22;;;;;;;4.05;1.50;;;;;;;;;;4946441;28;20046;-85
2023/07/05 09:15:54;;;;;;;3.40;1.33;;;;;;;;;;4931523;28;20877;-86
2023/07/05 09:18:27;;;;;;;3.50;1.55;;;;;;;;;;4965054;28;20038;-85
2023/07/05 09:21:06;;;;;;;3.72;1.30;;;;;;;;;;4963093;28;20129;-86
2023/07/05 09:23:33;;;;;;;3.30;1.70;;;;;;;;;;4955960;28;20037;-85
2023/07/05 09:26:05;;;;;;;2.67;1.40;;;;;;;;;;4942619;28;20038;-85
2023/07/05 09:28:43;;;;;;;1.80;1.23;;;;;;;;;;4963125;28;20065;-86
2023/07/05 09:31:11;;;;;;;2.95;1.38;;;;;;;;;;4944022;28;20042;-85
2023/07/05 09:33:39;;;;;;;1.98;1.33;;;;;;;;;;4961754;28;20034;-85
2023/07/05 09:36:08;;;;;;;4.30;1.38;;;;;;;;;;4943577;28;20495;-85
2023/07/05 09:38:35;;;;;;;4.82;1.33;;;;;;;;;;4946157;28;20046;-87
2023/07/05 09:41:06;;;;;;;4.07;1.90;;;;;;;;;;4944553;28;20101;-86
2023/07/05 09:43:33;;;;;;;3.20;1.95;;;;;;;;;;4965978;28;20054;-87
2023/07/05 09:46:00;;;;;;;3.47;1.65;;;;;;;;;;4950482;28;20513;-87
2023/07/05 09:48:26;;;;;;;5.28;1.88;;;;;;;;;;4929395;28;20038;-86
2023/07/05 09:50:57;;;;;;;6.15;2.00;;;;;;;;;;4950335;28;20512;-86
2023/07/05 09:53:42;;;;;;;7.72;1.92;;;;;;;;;;4950830;28;20038;-85
2023/07/05 09:56:09;;;;;;;5.22;1.95;;;;;;;;;;4929178;28;20049;-87
2023/07/05 09:58:35;;;;;;;5.72;2.00;;;;;;;;;;4936176;28;20046;-87
2023/07/05 10:01:08;;;;;;;5.22;1.65;;;;;;;;;;4934219;28;20037;-86
2023/07/05 10:03:38;;;;;;;4.25;1.80;;;;;;;;;;4937625;28;20049;-86
2023/07/05 10:06:08;;;;;;;4.68;2.20;;;;;;;;;;4944858;28;20047;-87
2023/07/05 10:08:44;;;;;;;4.82;1.90;;;;;;;;;;4949465;28;20403;-86
2023/07/05 10:11:26;;;;;;;5.30;1.88;;;;;;;;;;4961911;28;22094;-86
2023/07/05 10:14:02;;;;;;;6.53;2.05;;;;;;;;;;4946604;28;20030;-86
2023/07/05 10:16:48;;;;;;;5.38;1.90;;;;;;;;;;4937569;28;20069;-86
2023/07/05 10:19:24;;;;;;;6.93;2.38;;;;;;;;;;4951779;28;20122;-87
2023/07/05 10:21:57;;;;;;;4.45;1.58;;;;;;;;;;4950378;28;20049;-86
2023/07/05 10:24:24;;;;;;;5.38;1.95;;;;;;;;;;4939285;28;20441;-86
2023/07/05 10:27:01;;;;;;;4.90;1.77;;;;;;;;;;4949884;28;20069;-85
2023/07/05 10:29:27;;;;;;;4.38;1.85;;;;;;;;;;4936523;28;20104;-85
2023/07/05 10:31:54;;;;;;;6.80;1.90;;;;;;;;;;4934983;28;20045;-85
2023/07/05 10:34:23;;;;;;;2.90;1.73;;;;;;;;;;4918617;28;20109;-86
2023/07/05 10:36:49;;;;;;;2.47;1.48;;;;;;;;;;4955356;28;20039;-86
2023/07/05 10:39:23;;;;;;;4.55;1.50;;;;;;;;;;4952992;28;20620;-86
2023/07/05 10:41:57;;;;;;;7.10;1.83;;;;;;;;;;4935213;28;22320;-86
2023/07/05 10:44:24;;;;;;;6.05;1.98;;;;;;;;;;4949433;28;20050;-85
2023/07/05 10:46:53;;;;;;;5.18;1.77;;;;;;;;;;4936202;28;20050;-86
2023/07/05 10:49:19;;;;;;;3.83;2.00;;;;;;;;;;4952101;28;20564;-86
2023/07/05 10:51:52;;;;;;;4.63;1.88;;;;;;;;;;4938299;28;20520;-86
2023/07/05 10:54:41;;;;;;;6.10;1.70;;;;;;;;;;4935437;28;20537;-86
2023/07/05 10:57:31;;;;;;;6.00;2.15;;;;;;;;;;4918053;28;20588;-85
2023/07/05 11:00:17;;;;;;;5.28;1.98;;;;;;;;;;4907576;28;20105;-85
2023/07/05 11:02:46;;;;;;;4.97;2.28;;;;;;;;;;4924156;28;20117;-86
2023/07/05 11:05:20;;;;;;;7.50;2.53;;;;;;;;;;4939985;28;20107;-87
2023/07/05 11:07:46;;;;;;;6.03;2.10;;;;;;;;;;4940497;28;20046;-85
2023/07/05 11:10:16;;;;;;;8.35;2.42;;;;;;;;;;4944382;28;20073;-85
2023/07/05 11:12:42;;;;;;;8.00;2.67;;;;;;;;;;4936152;28;20038;-86
2023/07/05 11:15:14;;;;;;;8.90;2.85;;;;;;;;;;4916776;28;20106;-85
2023/07/05 11:17:40;;;;;;;4.20;2.03;;;;;;;;;;4952669;28;20158;-85
2023/07/05 11:20:25;;;;;;;6.40;2.22;;;;;;;;;;4932610;28;21021;-85
2023/07/05 11:22:51;;;;;;;5.07;2.08;;;;;;;;;;4944321;28;20057;-86
2023/07/05 11:25:17;;;;;;;4.57;1.88;;;;;;;;;;4933959;28;20046;-85
2023/07/05 11:27:54;;;;;;;6.38;2.03;;;;;;;;;;4923212;28;20482;-84
2023/07/05 11:30:38;;;;;;;4.15;1.60;;;;;;;;;;4926186;28;20389;-85
2023/07/05 11:33:11;;;;;;;5.85;1.77;;;;;;;;;;4970452;28;20038;-85
2023/07/05 11:35:41;;;;;;;3.78;2.00;;;;;;;;;;4941237;28;20042;-85
2023/07/05 11:38:07;;;;;;;4.40;1.67;;;;;;;;;;4935643;28;20577;-85
2023/07/05 11:41:06;;;;;;;4.28;2.08;;;;;;;;;;4956608;28;20061;-85
2023/07/05 11:43:42;;;;;;;5.00;1.80;;;;;;;;;;4921564;28;20058;-85
2023/07/05 11:46:27;;;;;;;2.92;1.40;;;;;;;;;;4936708;28;20046;-85
2023/07/05 11:48:53;;;;;;;4.68;1.45;;;;;;;;;;4951088;28;20050;-85
2023/07/05 11:51:29;;;;;;;4.53;1.92;;;;;;;;;;4974794;28;20042;-85
2023/07/05 11:53:56;;;;;;;4.60;1.40;;;;;;;;;;4932211;28;20500;-86
2023/07/05 11:56:22;;;;;;;4.32;1.45;;;;;;;;;;4936478;28;20117;-87
2023/07/05 11:58:50;;;;;;;3.35;1.50;;;;;;;;;;4955613;28;20046;-87
2023/07/05 12:01:19;;;;;;;6.88;2.00;;;;;;;;;;4924013;28;20074;-87
2023/07/05 12:03:51;;;;;;;7.32;1.85;;;;;;;;;;4937779;28;20409;-87
2023/07/05 12:06:19;;;;;;;4.53;1.58;;;;;;;;;;4942100;28;20042;-86
2023/07/05 12:08:48;;;;;;;3.90;1.67;;;;;;;;;;4942840;28;20038;-87
2023/07/05 12:11:15;;;;;;;6.53;1.70;;;;;;;;;;4951908;28;20073;-87
2023/07/05 12:13:41;;;;;;;3.85;1.95;;;;;;;;;;4926281;28;20081;-87
2023/07/05 12:16:07;;;;;;;3.78;1.80;;;;;;;;;;4932952;28;20430;-85
2023/07/05 12:18:33;;;;;;;6.63;1.52;;;;;;;;;;4959375;28;20069;-86
2023/07/05 12:21:02;;;;;;;7.68;2.10;;;;;;;;;;4934833;28;20625;-86
2023/07/05 12:23:28;;;;;;;;;;;;;;;;;;4953013;28;20038;-86
2023/07/05 12:25:55;;;;;;;3.70;2.00;;;;;;;;;;4948370;28;19977;-87
2023/07/05 12:28:22;;;;;;;8.60;2.50;;;;;;;;;;4922249;28;20121;-86
2023/07/05 12:30:48;;;;;;;5.22;2.20;;;;;;;;;;4939774;28;20559;-87
2023/07/05 12:33:22;;;;;;;5.20;2.50;;;;;;;;;;4963353;28;20058;-85
2023/07/05 12:35:49;;;;;;;7.90;2.78;;;;;;;;;;4938170;28;20053;-86
2023/07/05 12:38:18;;;;;;;7.38;2.10;;;;;;;;;;4924231;28;20042;-86
2023/07/05 12:40:50;;;;;;;5.68;2.10;;;;;;;;;;4954002;28;20661;-86
2023/07/05 12:43:22;;;;;;;7.68;2.10;;;;;;;;;;4951026;28;20055;-87
2023/07/05 12:45:48;;;;;;;9.63;2.38;;;;;;;;;;4935148;28;20811;-85
2023/07/05 12:48:15;;;;;;;5.90;2.00;;;;;;;;;;4933074;28;20562;-83
2023/07/05 12:50:41;;;;;;;7.78;2.33;;;;;;;;;;4971563;28;20038;-83
2023/07/05 12:53:11;;;;;;;5.35;2.35;;;;;;;;;;4920914;28;20042;-82
2023/07/05 12:55:38;;;;;;;4.55;2.00;;;;;;;;;;4957483;28;20516;-82
2023/07/05 12:58:04;;;;;;;9.65;2.80;;;;;;;;;;4917713;28;20042;-82
2023/07/05 13:00:30;;;;;;;6.88;2.78;;;;;;;;;;4952189;28;20157;-82
2023/07/05 13:03:00;;;;;;;5.55;2.63;;;;;;;;;;4950937;28;20049;-82
2023/07/05 13:05:26;;;;;;;6.18;2.45;;;;;;;;;;4931594;28;20052;-82
2023/07/05 13:07:53;;;;;;;9.32;2.10;;;;;;;;;;4942517;28;20164;-84
2023/07/05 13:10:19;;;;;;;7.88;2.45;;;;;;;;;;4970938;28;20038;-81
2023/07/05 13:12:49;;;;;;;9.32;2.75;;;;;;;;;;4938182;28;20042;-82
2023/07/05 13:15:16;;;;;;;6.97;2.47;;;;;;;;;;4941308;28;20097;-82
2023/07/05 13:17:42;;;;;;;7.75;2.70;;;;;;;;;;4936708;28;20043;-82
2023/07/05 13:20:09;;;;;;;5.68;2.42;;;;;;;;;;4921260;28;20046;-84
2023/07/05 13:22:37;;;;;;;6.47;2.90;;;;;;;;;;4956232;28;20042;-85
2023/07/05 13:25:05;;;;;;;8.98;2.58;;;;;;;;;;4912231;28;20309;-84
2023/07/05 13:27:33;;;;;;;8.18;2.40;;;;;;;;;;4949662;28;20086;-84
2023/07/05 13:30:18;;;;;;;5.95;2.75;;;;;;;;;;4933496;28;20042;-85
2023/07/05 13:32:45;;;;;;;6.97;2.28;;;;;;;;;;4920177;28;20047;-85
2023/07/05 13:35:12;;;;;;;8.95;2.80;;;;;;;;;;4963262;28;20089;-85
2023/07/05 13:37:38;;;;;;;10.15;2.80;;;;;;;;;;4949138;28;20097;-85
2023/07/05 13:40:09;;;;;;;10.65;3.60;;;;;;;;;;4948503;28;20101;-85
2023/07/05 13:42:39;;;;;;;9.25;3.13;;;;;;;;;;4943438;28;20178;-84
2023/07/05 13:45:06;;;;;;;8.50;3.45;;;;;;;;;;4946950;28;20054;-83
2023/07/05 13:47:32;;;;;;;13.17;3.70;;;;;;;;;;4922978;28;20069;-84
2023/07/05 13:49:59;;;;;;;7.80;3.20;;;;;;;;;;4933652;28;20046;-83
2023/07/05 13:52:25;;;;;;;9.35;2.80;;;;;;;;;;4936592;28;21091;-84
2023/07/05 13:54:51;;;;;;;7.28;2.90;;;;;;;;;;4931246;28;21159;-84
2023/07/05 13:57:18;;;;;;;7.40;2.92;;;;;;;;;;4948689;28;20042;-83
2023/07/05 13:59:44;;;;;;;9.50;3.13;;;;;;;;;;4940642;28;20089;-83
2023/07/05 14:02:30;;;;;;;9.93;3.03;;;;;;;;;;4930437;28;20180;-84
2023/07/05 14:04:57;;;;;;;6.72;2.75;;;;;;;;;;4948479;28;20056;-83
2023/07/05 14:07:23;;;;;;;5.55;2.83;;;;;;;;;;4936588;28;20045;-83
2023/07/05 14:09:50;;;;;;;7.65;3.33;;;;;;;;;;4968175;28;20409;-83
2023/07/05 14:12:18;;;;;;;;;;;;;;;;;;4952109;28;20047;-83
2023/07/05 14:14:46;;;;;;;7.43;3.30;;;;;;;;;;4966572;28;19976;-83
2023/07/05 14:17:16;;;;;;;8.52;3.40;;;;;;;;;;4946953;28;20085;-83
2023/07/05 14:19:42;;;;;;;7.70;3.20;;;;;;;;;;4935977;28;20034;-83
2023/07/05 14:22:16;;;;;;;9.10;3.40;;;;;;;;;;4949609;28;20046;-84
2023/07/05 14:24:45;;;;;;;8.75;3.63;;;;;;;;;;4922259;28;20045;-84
2023/07/05 14:27:16;;;;;;;8.20;3.30;;;;;;;;;;4965125;28;20053;-83
2023/07/05 14:29:43;;;;;;;6.32;2.90;;;;;;;;;;4971471;28;20089;-83
2023/07/05 14:32:10;;;;;;;6.78;3.53;;;;;;;;;;4962110;28;20042;-83
2023/07/05 14:34:36;;;;;;;10.63;3.55;;;;;;;;;;4954696;28;20768;-83
2023/07/05 14:37:02;;;;;;;12.98;3.42;;;;;;;;;;4931551;28;20064;-83
2023/07/05 14:39:28;;;;;;;5.43;2.80;;;;;;;;;;4950899;28;20198;-83
2023/07/05 14:41:55;;;;;;;8.70;3.30;;;;;;;;;;4958475;28;20062;-83
2023/07/05 14:44:21;;;;;;;7.93;3.15;;;;;;;;;;4939421;28;20133;-83
2023/07/05 14:46:47;;;;;;;7.32;3.08;;;;;;;;;;4967955;28;20495;-83
2023/07/05 14:49:13;;;;;;;7.25;3.38;;;;;;;;;;4964027;28;20042;-83
2023/07/05 14:51:40;;;;;;;10.93;3.75;;;;;;;;;;4965198;28;20042;-83
2023/07/05 14:54:06;;;;;;;10.23;3.10;;;;;;;;;;4928946;28;20034;-82
2023/07/05 14:56:33;;;;;;;6.75;3.17;;;;;;;;;;4948599;28;20111;-82
2023/07/05 14:58:59;;;;;;;5.28;2.85;;;;;;;;;;4945195;28;20494;-82
2023/07/05 15:01:25;;;;;;;10.27;3.35;;;;;;;;;;4938660;28;20426;-82
2023/07/05 15:03:51;;;;;;;8.25;2.67;;;;;;;;;;4919825;28;20536;-82
2023/07/05 15:06:17;;;;;;;5.97;3.38;;;;;;;;;;4939606;28;20030;-82
2023/07/05 15:08:43;;;;;;;9.43;3.03;;;;;;;;;;4924446;28;20038;-82
2023/07/05 15:11:12;;;;;;;4.63;3.17;;;;;;;;;;4968868;28;20038;-82
2023/07/05 15:13:43;;;;;;;4.78;2.35;;;;;;;;;;4956283;28;20083;-83